Time;durP1;ratioP1;P1;durP2;ratioP2;P2;SDS_P1;SDS_P2;PMS_P1;PMS_P2;Temp;Humidity;BMP_temperature;BMP_pressure;BME280_temperature;BME280_humidity;BME280_pressure;Samples;Min_cycle;Max_cycle;Signal;HPM_P1;HPM_P2
2022/11/08 00:01:42;;;;;;;;;;;;;;;-143.57;100.00;51167.81;5073746;28;20048;-72
2022/11/08 00:04:13;;;;;;;;;;;;;;;-143.57;100.00;51159.84;5082795;28;20323;-72
2022/11/08 00:14:57;;;;;;;;;;;;;;;-143.57;100.00;51159.84;5081032;28;19928;-72
2022/11/08 00:17:26;;;;;;;;;;;;;;;-143.57;100.00;51175.75;5062757;28;20720;-72
2022/11/08 00:19:53;;;;;;;;;;;;;;;-143.57;100.00;51195.63;5081360;28;19928;-72
2022/11/08 00:22:20;;;;;;;;;;;;;;;-143.57;100.00;51165.81;5089385;28;19978;-72
2022/11/08 00:24:47;;;;;;;;;;;;;;;-143.57;100.00;51179.75;5082238;28;20027;-72
2022/11/08 00:27:15;;;;;;;;;;;;;;;-143.57;100.00;51183.72;5064221;28;20019;-72
2022/11/08 00:29:42;;;;;;;;;;;;;;;-143.57;100.00;51173.78;5085177;28;21264;-72
2022/11/08 00:32:14;;;;;;;;;;;;;;;-143.57;100.00;51179.75;5080637;28;20284;-72
2022/11/08 00:34:41;;;;;;;;;;;;;;;-143.57;100.00;51195.63;5088873;28;19923;-70
2022/11/08 00:37:07;;;;;;;;;;;;;;;-143.57;100.00;51203.59;5084437;28;19992;-71
2022/11/08 00:39:34;;;;;;;;;;;;;;;-143.57;100.00;51171.78;5082311;28;20482;-72
2022/11/08 00:42:01;;;;;;;;;;;;;;;-143.57;100.00;51199.63;5084285;28;19928;-72
2022/11/08 00:44:27;;;;;;;;;;;;;;;-143.57;100.00;51175.75;5082041;28;20010;-72
2022/11/08 00:46:54;;;;;;;;;;;;;;;-143.57;100.00;51197.63;5084129;28;19967;-71
2022/11/08 00:49:21;;;;;;;;;;;;;;;-143.57;100.00;51161.84;5068304;28;19963;-72
2022/11/08 00:51:47;;;;;;;;;;;;;;;-143.57;100.00;51191.66;5086367;28;19924;-72
2022/11/08 00:54:15;;;;;;;;;;;;;;;-143.57;100.00;51183.72;5080192;28;19960;-72
2022/11/08 00:56:42;;;;;;;;;;;;;;;-143.57;100.00;51132.03;5079490;28;20082;-72
2022/11/08 00:59:10;;;;;;;;;;;;;;;-143.57;100.00;51171.78;5082106;28;19935;-72
2022/11/08 01:01:37;;;;;;;;;;;;;;;-143.57;100.00;51159.84;5084007;28;19956;-72
2022/11/08 01:04:04;;;;;;;;;;;;;;;-143.57;100.00;51163.84;5080099;28;19939;-71
2022/11/08 01:06:30;;;;;;;;;;;;;;;-143.57;100.00;51191.66;5083516;28;19935;-72
2022/11/08 01:08:57;;;;;;;;;;;;;;;-143.57;100.00;51195.63;5079305;28;19928;-72
2022/11/08 01:11:24;;;;;;;;;;;;;;;-143.57;100.00;51199.63;5080117;28;20136;-72
2022/11/08 01:13:51;;;;;;;;;;;;;;;-143.57;100.00;51191.66;5062224;28;19928;-72
2022/11/08 01:16:19;;;;;;;;;;;;;;;-143.57;100.00;51163.84;5093099;27;20414;-72
2022/11/08 01:18:47;;;;;;;;;;;;;;;-143.57;100.00;51179.75;5083549;28;19936;-72
2022/11/08 01:21:14;;;;;;;;;;;;;;;-143.57;100.00;51175.75;5079963;28;19928;-72
2022/11/08 01:23:41;;;;;;;;;;;;;;;-143.57;100.00;51183.72;5082699;28;19928;-72
2022/11/08 01:26:11;;;;;;;;;;;;;;;-143.57;100.00;51189.69;5077883;28;19975;-71
2022/11/08 01:28:37;;;;;;;;;;;;;;;-143.57;100.00;51183.72;5082588;28;19928;-72
2022/11/08 01:31:05;;;;;;;;;;;;;;;-143.57;100.00;51187.69;5079816;28;20031;-72
2022/11/08 01:33:32;;;;;;;;;;;;;;;-143.57;100.00;51199.63;5090722;28;19924;-72
2022/11/08 01:35:59;;;;;;;;;;;;;;;-143.57;100.00;51211.53;5078588;28;20027;-72
2022/11/08 01:38:26;;;;;;;;;;;;;;;-143.57;100.00;51183.72;5083008;28;19962;-72
2022/11/08 01:40:52;;;;;;;;;;;;;;;-143.57;100.00;51187.69;5080521;28;20493;-72
2022/11/08 01:43:25;;;;;;;;;;;;;;;-143.57;100.00;51183.72;5083145;28;19928;-72
2022/11/08 01:46:07;;;;;;;;;;;;;;;-143.57;100.00;51217.50;5079917;28;20432;-72
2022/11/08 01:48:34;;;;;;;;;;;;;;;-143.57;100.00;51223.47;5080200;28;19928;-72
2022/11/08 01:51:01;;;;;;;;;;;;;;;-143.57;100.00;51213.53;5079189;28;19936;-72
2022/11/08 01:53:28;;;;;;;;;;;;;;;-143.57;100.00;51185.69;5080632;28;19928;-72
2022/11/08 01:55:55;;;;;;;;;;;;;;;-143.57;100.00;51171.78;5082202;28;19924;-72
2022/11/08 01:58:24;;;;;;;;;;;;;;;-143.57;100.00;51203.59;5078983;28;19975;-72
2022/11/08 02:00:51;;;;;;;;;;;;;;;-143.57;100.00;51199.63;5081488;28;19989;-72
2022/11/08 02:03:19;;;;;;;;;;;;;;;-143.57;100.00;51221.47;5078407;28;19946;-71
2022/11/08 02:05:46;;;;;;;;;;;;;;;-143.57;100.00;51213.53;5080950;28;19928;-72
2022/11/08 02:08:21;;;;;;;;;;;;;;;-143.57;100.00;51191.66;5078273;28;19928;-72
2022/11/08 02:10:50;;;;;;;;;;;;;;;-143.57;100.00;51183.72;5083067;28;19931;-72
2022/11/08 02:13:21;;;;;;;;;;;;;;;-143.57;100.00;51209.56;5078860;28;19932;-72
2022/11/08 02:15:48;;;;;;;;;;;;;;;-143.57;100.00;51199.63;5091727;27;19982;-72
2022/11/08 02:18:15;;;;;;;;;;;;;;;-143.57;100.00;51215.53;5055680;28;19939;-72
2022/11/08 02:20:49;;;;;;;;;;;;;;;-143.57;100.00;51191.66;5081376;28;19989;-72
2022/11/08 02:23:20;;;;;;;;;;;;;;;-143.57;100.00;51203.59;5042792;28;21021;-72
2022/11/08 02:25:47;;;;;;;;;;;;;;;-143.57;100.00;51187.69;5077557;28;19924;-72
2022/11/08 02:28:13;;;;;;;;;;;;;;;-143.57;100.00;51171.78;5079644;28;20029;-72
2022/11/08 02:30:41;;;;;;;;;;;;;;;-143.57;100.00;51197.63;5079760;28;19924;-72
2022/11/08 02:33:21;;;;;;;;;;;;;;;-143.57;100.00;51187.69;5079681;28;19957;-73
2022/11/08 02:35:53;;;;;;;;;;;;;;;-143.57;100.00;51191.66;5061581;28;20141;-72
2022/11/08 02:38:20;;;;;;;;;;;;;;;-143.57;100.00;51167.81;5080795;28;19997;-72
2022/11/08 02:40:49;;;;;;;;;;;;;;;-143.57;100.00;51215.53;5078064;28;19928;-72
2022/11/08 02:43:15;;;;;;;;;;;;;;;-143.57;100.00;51207.56;5080753;28;20019;-72
2022/11/08 02:45:42;;;;;;;;;;;;;;;-143.57;100.00;51191.66;5076427;28;19928;-72
2022/11/08 02:48:09;;;;;;;;;;;;;;;-143.57;100.00;51199.63;5081451;28;19924;-73
2022/11/08 02:50:36;;;;;;;;;;;;;;;-143.57;100.00;51237.38;5079277;28;19928;-72
2022/11/08 02:53:03;;;;;;;;;;;;;;;-143.57;100.00;51203.59;5063549;28;20634;-72
2022/11/08 02:55:29;;;;;;;;;;;;;;;-143.57;100.00;51191.66;5078111;28;19924;-72
2022/11/08 02:57:56;;;;;;;;;;;;;;;-143.57;100.00;51219.50;5080372;28;20030;-73
2022/11/08 03:00:23;;;;;;;;;;;;;;;-143.57;100.00;51219.50;5079704;28;20674;-71
2022/11/08 03:02:52;;;;;;;;;;;;;;;-143.57;100.00;51219.50;5080184;28;20018;-71
2022/11/08 03:05:19;;;;;;;;;;;;;;;-143.57;100.00;51207.56;5079237;28;20019;-71
2022/11/08 03:07:46;;;;;;;;;;;;;;;-143.57;100.00;51207.56;5059691;28;20655;-71
2022/11/08 03:10:13;;;;;;;;;;;;;;;-143.57;100.00;51183.72;5081186;28;19963;-73
2022/11/08 03:12:41;;;;;;;;;;;;;;;-143.57;100.00;51227.44;5078646;28;20535;-73
2022/11/08 03:15:09;;;;;;;;;;;;;;;-143.57;100.00;51211.53;5080620;28;20263;-73
2022/11/08 03:17:35;;;;;;;;;;;;;;;-143.57;100.00;51185.69;5079510;28;20018;-73
2022/11/08 03:20:03;;;;;;;;;;;;;;;-143.57;100.00;51219.50;5062985;28;19951;-71
2022/11/08 03:22:29;;;;;;;;;;;;;;;-143.57;100.00;51235.41;5062554;28;20042;-71
2022/11/08 03:24:56;;;;;;;;;;;;;;;-143.57;100.00;51211.53;5081327;28;20416;-73
2022/11/08 03:27:22;;;;;;;;;;;;;;;-143.57;100.00;51247.31;5079440;28;20691;-72
2022/11/08 03:29:49;;;;;;;;;;;;;;;-143.57;100.00;51211.53;5079856;28;19924;-73
2022/11/08 03:32:16;;;;;;;;;;;;;;;-143.57;100.00;51207.56;5080676;28;20372;-72
2022/11/08 03:34:42;;;;;;;;;;;;;;;-143.57;100.00;51191.66;5079443;28;20670;-73
2022/11/08 03:37:09;;;;;;;;;;;;;;;-143.57;100.00;51215.53;5083506;28;20605;-72
2022/11/08 03:39:36;;;;;;;;;;;;;;;-143.57;100.00;51207.56;5083561;28;19928;-72
2022/11/08 03:42:03;;;;;;;;;;;;;;;-143.57;100.00;51193.66;5085337;28;19931;-72
2022/11/08 03:44:30;;;;;;;;;;;;;;;-143.57;100.00;51203.59;5082512;28;19932;-73
2022/11/08 03:46:57;;;;;;;;;;;;;;;-143.57;100.00;51221.47;5085169;28;19993;-74
2022/11/08 03:49:25;;;;;;;;;;;;;;;-143.57;100.00;51199.63;5080991;28;20030;-73
2022/11/08 03:51:53;;;;;;;;;;;;;;;-143.57;100.00;51207.56;5085409;28;20345;-73
2022/11/08 03:54:19;;;;;;;;;;;;;;;-143.57;100.00;51207.56;5081297;28;19942;-73
2022/11/08 03:56:46;;;;;;;;;;;;;;;-143.57;100.00;51207.56;5084421;28;20458;-72
2022/11/08 03:59:13;;;;;;;;;;;;;;;-143.57;100.00;51223.47;5081835;28;20016;-72
2022/11/08 04:01:40;;;;;;;;;;;;;;;-143.57;100.00;51199.63;5082436;28;19978;-73
2022/11/08 04:04:06;;;;;;;;;;;;;;;-143.57;100.00;51197.63;5083234;28;19924;-73
2022/11/08 04:06:33;;;;;;;;;;;;;;;-143.57;100.00;51213.53;5081879;28;20450;-70
2022/11/08 04:09:00;;;;;;;;;;;;;;;-143.57;100.00;51195.63;5083290;28;20047;-73
2022/11/08 04:16:57;;;;;;;;;;;;;;;-143.57;100.00;51195.63;5080003;28;20029;-72
2022/11/08 04:22:09;;;;;;;;;;;;;;;-143.57;100.00;51207.56;5081002;28;19924;-72
2022/11/08 04:24:36;;;;;;;;;;;;;;;-143.57;100.00;51193.66;5084714;28;19955;-72
2022/11/08 04:27:03;;;;;;;;;;;;;;;-143.57;100.00;51209.56;5079711;28;20026;-72
2022/11/08 04:29:30;;;;;;;;;;;;;;;-143.57;100.00;51245.34;5083772;28;19936;-72
2022/11/08 04:31:56;;;;;;;;;;;;;;;-143.57;100.00;51187.69;5080405;28;19930;-72
2022/11/08 04:34:24;;;;;;;;;;;;;;;-143.57;100.00;51209.56;5083126;28;19924;-72
2022/11/08 04:36:53;;;;;;;;;;;;;;;-143.57;100.00;51203.59;5080049;28;19928;-72
2022/11/08 04:39:19;;;;;;;;;;;;;;;-143.57;100.00;51199.63;5060895;28;19932;-72
2022/11/08 04:41:46;;;;;;;;;;;;;;;-143.57;100.00;51201.59;5080127;28;19931;-71
2022/11/08 04:44:14;;;;;;;;;;;;;;;-143.57;100.00;51211.53;5064164;28;19971;-72
2022/11/08 04:46:41;;;;;;;;;;;;;;;-143.57;100.00;51223.47;5080024;28;19931;-73
2022/11/08 04:49:07;;;;;;;;;;;;;;;-143.57;100.00;51217.50;5079276;28;20066;-74
2022/11/08 04:51:34;;;;;;;;;;;;;;;-143.57;100.00;51179.75;5064706;28;19928;-72
2022/11/08 04:54:01;;;;;;;;;;;;;;;-143.57;100.00;51231.41;5063290;28;19928;-72
2022/11/08 04:56:29;;;;;;;;;;;;;;;-143.57;100.00;51213.53;5077304;28;20017;-73
2022/11/08 04:58:57;;;;;;;;;;;;;;;-143.57;100.00;51211.53;5056981;28;19935;-71
2022/11/08 05:01:25;;;;;;;;;;;;;;;-143.57;100.00;51191.66;5081803;28;20006;-72
2022/11/08 05:03:52;;;;;;;;;;;;;;;-143.57;100.00;51223.47;5081331;28;19928;-71
2022/11/08 05:06:20;;;;;;;;;;;;;;;-143.57;100.00;51225.47;5082981;28;19932;-71
2022/11/08 05:08:47;;;;;;;;;;;;;;;-143.57;100.00;51251.31;5079937;28;19928;-70
2022/11/08 05:11:16;;;;;;;;;;;;;;;-143.57;100.00;51191.66;5082827;28;19936;-71
2022/11/08 05:13:43;;;;;;;;;;;;;;;-143.57;100.00;51211.53;5079251;28;20655;-72
2022/11/08 05:16:11;;;;;;;;;;;;;;;-143.57;100.00;51211.53;5080834;28;19934;-70
2022/11/08 05:18:38;;;;;;;;;;;;;;;-143.57;100.00;51211.53;5081483;28;19931;-71
2022/11/08 05:23:54;;;;;;;;;;;;;;;-143.57;100.00;51207.56;5080583;28;19932;-71
2022/11/08 05:26:21;;;;;;;;;;;;;;;-143.57;100.00;51177.75;5076714;28;19932;-70
2022/11/08 05:28:47;;;;;;;;;;;;;;;-143.57;100.00;51235.41;5079741;28;19924;-71
2022/11/08 05:31:15;;;;;;;;;;;;;;;-143.57;100.00;51187.69;5078431;28;19936;-70
2022/11/08 05:33:42;;;;;;;;;;;;;;;-143.57;100.00;51267.19;5081527;28;20043;-71
2022/11/08 05:36:10;;;;;;;;;;;;;;;-143.57;100.00;51219.50;5078983;28;19928;-71
2022/11/08 05:38:37;;;;;;;;;;;;;;;-143.57;100.00;51195.63;5082369;28;20768;-71
2022/11/08 05:41:04;;;;;;;;;;;;;;;-143.57;100.00;51215.53;5078841;28;19963;-71
2022/11/08 05:43:31;;;;;;;;;;;;;;;-143.57;100.00;51195.63;5082489;28;20432;-71
2022/11/08 05:45:58;;;;;;;;;;;;;;;-143.57;100.00;51193.66;5077632;28;19936;-72
2022/11/08 05:48:24;;;;;;;;;;;;;;;-143.57;100.00;51199.63;5080095;28;20013;-72
2022/11/08 05:50:51;;;;;;;;;;;;;;;-143.57;100.00;51215.53;5078777;28;20027;-70
2022/11/08 05:53:18;;;;;;;;;;;;;;;-143.57;100.00;51231.41;5078242;28;20406;-71
2022/11/08 05:55:45;;;;;;;;;;;;;;;-143.57;100.00;51215.53;5093002;27;19933;-70
2022/11/08 05:58:12;;;;;;;;;;;;;;;-143.57;100.00;51207.56;5061481;28;20931;-69
2022/11/08 06:00:39;;;;;;;;;;;;;;;-143.57;100.00;51207.56;5081110;28;20046;-71
2022/11/08 06:03:05;;;;;;;;;;;;;;;-143.57;100.00;51193.66;5078727;28;19928;-70
2022/11/08 06:05:33;;;;;;;;;;;;;;;-143.57;100.00;51211.53;5083840;28;20045;-71
2022/11/08 06:07:59;;;;;;;;;;;;;;;-143.57;100.00;51215.53;5079149;28;19935;-70
2022/11/08 06:10:26;;;;;;;;;;;;;;;-143.57;100.00;51211.53;5079251;28;19975;-71
2022/11/08 06:12:56;;;;;;;;;;;;;;;-143.57;100.00;51239.38;5078833;28;19934;-70
2022/11/08 06:15:23;;;;;;;;;;;;;;;-143.57;100.00;51231.41;5081808;28;20694;-71
2022/11/08 06:17:50;;;;;;;;;;;;;;;-143.57;100.00;51207.56;5078959;28;19940;-71
2022/11/08 06:20:16;;;;;;;;;;;;;;;-143.57;100.00;51219.50;5083560;28;20404;-71
2022/11/08 06:22:44;;;;;;;;;;;;;;;-143.57;100.00;51207.56;5080410;28;19928;-70
2022/11/08 06:25:11;;;;;;;;;;;;;;;-143.57;100.00;51211.53;5077224;28;20384;-71
2022/11/08 06:27:37;;;;;;;;;;;;;;;-143.57;100.00;51219.50;5080328;28;19932;-71
2022/11/08 06:30:04;;;;;;;;;;;;;;;-143.57;100.00;51215.53;5078435;28;20659;-74
2022/11/08 06:32:31;;;;;;;;;;;;;;;-143.57;100.00;51191.66;5064585;28;19924;-74
2022/11/08 06:34:58;;;;;;;;;;;;;;;-143.57;100.00;51241.34;5079821;28;19955;-74
2022/11/08 06:37:24;;;;;;;;;;;;;;;-143.57;100.00;51229.44;5063391;28;20388;-72
2022/11/08 06:39:51;;;;;;;;;;;;;;;-143.57;100.00;51223.47;5078759;28;20011;-72
2022/11/08 06:42:17;;;;;;;;;;;;;;;-143.57;100.00;51219.50;5069759;28;19967;-76
2022/11/08 06:44:44;;;;;;;;;;;;;;;-143.57;100.00;51235.41;5059248;28;20483;-70
2022/11/08 06:47:11;;;;;;;;;;;;;;;-143.57;100.00;51223.47;5062367;28;19959;-75
2022/11/08 06:49:38;;;;;;;;;;;;;;;-143.57;100.00;51235.41;5081489;28;19924;-70
2022/11/08 06:52:04;;;;;;;;;;;;;;;-143.57;100.00;51239.38;5081918;28;19944;-74
2022/11/08 06:54:31;;;;;;;;;;;;;;;-143.57;100.00;51207.56;5081130;28;19958;-74
2022/11/08 06:57:01;;;;;;;;;;;;;;;-143.57;100.00;51199.63;5059564;28;19924;-74
2022/11/08 06:59:28;;;;;;;;;;;;;;;-143.57;100.00;51199.63;5079374;28;20011;-74
2022/11/08 07:01:54;;;;;;;;;;;;;;;-143.57;100.00;51223.47;5075370;28;20087;-73
2022/11/08 07:04:21;;;;;;;;;;;;;;;-143.57;100.00;51259.25;5079713;28;20583;-74
2022/11/08 07:06:48;;;;;;;;;;;;;;;-143.57;100.00;51247.31;5073701;28;19971;-74
2022/11/08 07:09:14;;;;;;;;;;;;;;;-143.57;100.00;51247.31;5082311;28;19940;-74
2022/11/08 07:11:41;;;;;;;;;;;;;;;-143.57;100.00;51227.44;5057632;28;19932;-74
2022/11/08 07:14:08;;;;;;;;;;;;;;;-143.57;100.00;51201.59;5083649;28;19923;-72
2022/11/08 07:16:34;;;;;;;;;;;;;;;-143.57;100.00;51245.34;5078326;28;19924;-75
2022/11/08 07:19:02;;;;;;;;;;;;;;;-143.57;100.00;51193.66;5079945;28;20420;-74
2022/11/08 07:21:30;;;;;;;;;;;;;;;-143.57;100.00;51213.53;5061304;28;20650;-72
2022/11/08 07:23:57;;;;;;;;;;;;;;;-143.57;100.00;51199.63;5060811;28;19978;-74
2022/11/08 07:26:23;;;;;;;;;;;;;;;-143.57;100.00;51211.53;5081580;28;20024;-74
2022/11/08 07:28:50;;;;;;;;;;;;;;;-143.57;100.00;51219.50;5076878;28;20016;-74
2022/11/08 07:31:17;;;;;;;;;;;;;;;-143.57;100.00;51227.44;5062466;28;19928;-71
2022/11/08 07:33:44;;;;;;;;;;;;;;;-143.57;100.00;51219.50;5078141;28;19931;-72
2022/11/08 07:36:10;;;;;;;;;;;;;;;-143.57;100.00;51191.66;5066222;28;19936;-74
2022/11/08 07:38:37;;;;;;;;;;;;;;;-143.57;100.00;51241.34;5078359;28;19940;-74
2022/11/08 07:41:04;;;;;;;;;;;;;;;-143.57;100.00;51199.63;5085424;28;20015;-73
2022/11/08 07:43:31;;;;;;;;;;;;;;;-143.57;100.00;51227.44;5076971;28;19924;-73
2022/11/08 07:46:07;;;;;;;;;;;;;;;-143.57;100.00;51199.63;5051604;28;19931;-73
2022/11/08 07:48:34;;;;;;;;;;;;;;;-143.57;100.00;51239.38;5082332;28;19967;-73
2022/11/08 07:51:01;;;;;;;;;;;;;;;-143.57;100.00;51203.59;5079310;28;19924;-73
2022/11/08 07:53:28;;;;;;;;;;;;;;;-143.57;100.00;51195.63;5084799;28;20018;-71
2022/11/08 07:55:57;;;;;;;;;;;;;;;-143.57;100.00;51227.44;5073817;28;20009;-71
2022/11/08 07:58:23;;;;;;;;;;;;;;;-143.57;100.00;51217.50;5079034;28;19935;-71
2022/11/08 08:00:50;;;;;;;;;;;;;;;-143.57;100.00;51195.63;5076857;28;19940;-71
2022/11/08 08:03:17;;;;;;;;;;;;;;;-143.57;100.00;51211.53;5080093;28;19928;-71
2022/11/08 08:05:49;;;;;;;;;;;;;;;-143.57;100.00;51241.34;5075403;28;20026;-71
2022/11/08 08:08:15;;;;;;;;;;;;;;;-143.57;100.00;51235.41;5076630;28;19932;-71
2022/11/08 08:10:42;;;;;;;;;;;;;;;-143.57;100.00;51227.44;5060057;28;20306;-73
2022/11/08 08:13:09;;;;;;;;;;;;;;;-143.57;100.00;51275.16;5078000;28;19985;-72
2022/11/08 08:15:35;;;;;;;;;;;;;;;-143.57;100.00;51263.22;5077779;28;19928;-73
2022/11/08 08:18:03;;;;;;;;;;;;;;;-143.57;100.00;51225.47;5082725;28;19925;-73
2022/11/08 08:20:30;;;;;;;;;;;;;;;-143.57;100.00;51223.47;5077229;28;19924;-72
2022/11/08 08:22:57;;;;;;;;;;;;;;;-143.57;100.00;51227.44;5079863;28;19932;-70
2022/11/08 08:25:24;;;;;;;;;;;;;;;-143.57;100.00;51211.53;5082510;28;19935;-71
2022/11/08 08:27:52;;;;;;;;;;;;;;;-143.57;100.00;51235.41;5079151;28;20409;-69
2022/11/08 08:30:19;;;;;;;;;;;;;;;-143.57;100.00;51223.47;5082737;28;20625;-73
2022/11/08 08:32:47;;;;;;;;;;;;;;;-143.57;100.00;51203.59;5064960;28;20020;-72
2022/11/08 08:35:34;;;;;;;;;;;;;;;-143.57;100.00;51211.53;5082778;28;19924;-73
2022/11/08 08:38:01;;;;;;;;;;;;;;;-143.57;100.00;51235.41;5081025;28;20558;-73
2022/11/08 08:40:28;;;;;;;;;;;;;;;-143.57;100.00;51207.56;5083890;28;20086;-73
2022/11/08 08:42:56;;;;;;;;;;;;;;;-143.57;100.00;51273.16;5079398;28;19967;-73
2022/11/08 08:45:23;;;;;;;;;;;;;;;-143.57;100.00;51223.47;5084894;28;19934;-73
2022/11/08 08:47:53;;;;;;;;;;;;;;;-143.57;100.00;51231.41;5080426;28;19986;-72
2022/11/08 08:50:20;;;;;;;;;;;;;;;-143.57;100.00;51207.56;5082233;28;19928;-73
2022/11/08 08:52:47;;;;;;;;;;;;;;;-143.57;100.00;51225.47;5083506;28;19963;-72
2022/11/08 08:55:14;;;;;;;;;;;;;;;-143.57;100.00;51227.44;5084890;28;19981;-73
2022/11/08 08:57:46;;;;;;;;;;;;;;;-143.57;100.00;51223.47;5069138;28;19981;-76
2022/11/08 09:00:14;;;;;;;;;;;;;;;-143.57;100.00;51235.41;5077088;28;19930;-72
2022/11/08 09:03:04;;;;;;;;;;;;;;;-143.57;100.00;51235.41;5083401;28;19927;-72
2022/11/08 09:05:31;;;;;;;;;;;;;;;-143.57;100.00;51233.41;5082719;28;20013;-73
2022/11/08 09:07:58;;;;;;;;;;;;;;;-143.57;100.00;51237.38;5087625;28;19928;-72
2022/11/08 09:10:25;;;;;;;;;;;;;;;-143.57;100.00;51215.53;5079630;28;20031;-73
2022/11/08 09:12:52;;;;;;;;;;;;;;;-143.57;100.00;51221.47;5085132;28;19928;-73
2022/11/08 09:15:19;;;;;;;;;;;;;;;-143.57;100.00;51263.22;5084340;28;19928;-73
2022/11/08 09:17:45;;;;;;;;;;;;;;;-143.57;100.00;51241.34;5082935;28;19927;-73
2022/11/08 09:20:13;;;;;;;;;;;;;;;-143.57;100.00;51237.38;5079383;28;20026;-73
2022/11/08 09:22:39;;;;;;;;;;;;;;;-143.57;100.00;51215.53;5085710;28;19947;-73
2022/11/08 09:25:06;;;;;;;;;;;;;;;-143.57;100.00;51207.56;5087180;28;20439;-73
2022/11/08 09:27:34;;;;;;;;;;;;;;;-143.57;100.00;51215.53;5087594;28;19950;-73
2022/11/08 09:30:00;;;;;;;;;;;;;;;-143.57;100.00;51223.47;5083407;28;20431;-73
2022/11/08 09:32:27;;;;;;;;;;;;;;;-143.57;100.00;51215.53;5092517;28;19955;-72
2022/11/08 09:35:14;;;;;;;;;;;;;;;-143.57;100.00;51213.53;5082903;28;19924;-72
2022/11/08 09:37:41;;;;;;;;;;;;;;;-143.57;100.00;51215.53;5083676;28;20038;-73
2022/11/08 09:40:19;;;;;;;;;;;;;;;-143.57;100.00;51239.38;5086696;28;19959;-73
2022/11/08 09:42:49;;;;;;;;;;;;;;;-143.57;100.00;51235.41;5079687;28;20064;-72
2022/11/08 09:45:21;;;;;;;;;;;;;;;-143.57;100.00;51235.41;5079329;28;19935;-73
2022/11/08 09:47:53;;;;;;;;;;;;;;;-143.57;100.00;51241.34;5081122;28;20609;-73
2022/11/08 09:50:30;;;;;;;;;;;;;;;-143.57;100.00;51227.44;5081077;28;19924;-72
2022/11/08 09:53:08;;;;;;;;;;;;;;;-143.57;100.00;51215.53;5078741;28;19985;-73
2022/11/08 09:55:37;;;;;;;;;;;;;;;-143.57;100.00;51267.19;5081918;28;19951;-73
2022/11/08 09:58:17;;;;;;;;;;;;;;;-143.57;100.00;51269.19;5064743;28;19959;-72
2022/11/08 10:00:44;;;;;;;;;;;;;;;-143.57;100.00;51239.38;5084214;28;20039;-72
2022/11/08 10:03:14;;;;;;;;;;;;;;;-143.57;100.00;51251.31;5079820;28;20434;-72
2022/11/08 10:05:51;;;;;;;;;;;;;;;-143.57;100.00;51233.41;5082519;28;19939;-72
2022/11/08 10:08:27;;;;;;;;;;;;;;;-143.57;100.00;51235.41;5081196;28;19956;-72
2022/11/08 10:10:57;;;;;;;;;;;;;;;-143.57;100.00;51223.47;5083296;28;19924;-73
2022/11/08 10:13:27;;;;;;;;;;;;;;;-143.57;100.00;51207.56;5081505;28;20020;-69
2022/11/08 10:16:03;;;;;;;;;;;;;;;-143.57;100.00;51203.59;5086230;28;19935;-71
2022/11/08 10:18:30;;;;;;;;;;;;;;;-143.57;100.00;51219.50;5080454;28;20008;-69
2022/11/08 10:21:16;;;;;;;;;;;;;;;-143.57;100.00;51239.38;5085337;28;20651;-71
2022/11/08 10:23:42;;;;;;;;;;;;;;;-143.57;100.00;51243.34;5082506;28;20416;-72
2022/11/08 10:26:16;;;;;;;;;;;;;;;-143.57;100.00;51223.47;5099616;27;19924;-71
2022/11/08 10:29:19;;;;;;;;;;;;;;;-143.57;100.00;51223.47;5083084;28;19928;-71
2022/11/08 10:31:46;;;;;;;;;;;;;;;-143.57;100.00;51211.53;5093375;28;19989;-71
2022/11/08 10:34:16;;;;;;;;;;;;;;;-143.57;100.00;51197.63;5087391;28;19971;-72
2022/11/08 10:36:45;;;;;;;;;;;;;;;-143.57;100.00;51199.63;5079371;28;19931;-70
2022/11/08 10:39:16;;;;;;;;;;;;;;;-143.57;100.00;51235.41;5078549;28;20621;-69
2022/11/08 10:41:46;;;;;;;;;;;;;;;-143.57;100.00;51223.47;5079229;28;19928;-70
2022/11/08 10:44:14;;;;;;;;;;;;;;;-143.57;100.00;51235.41;5084421;28;20664;-70
2022/11/08 10:46:41;;;;;;;;;;;;;;;-143.57;100.00;51219.50;5079022;28;19924;-71
2022/11/08 10:49:18;;;;;;;;;;;;;;;-143.57;100.00;51227.44;5078497;28;19931;-71
2022/11/08 10:51:47;;;;;;;;;;;;;;;-143.57;100.00;51231.41;5082797;28;19931;-70
2022/11/08 10:54:33;;;;;;;;;;;;;;;-143.57;100.00;51223.47;5082655;28;19939;-76
2022/11/08 10:56:59;;;;;;;;;;;;;;;-143.57;100.00;51203.59;5080913;28;20085;-76
2022/11/08 10:59:29;;;;;;;;;;;;;;;-143.57;100.00;51235.41;5050531;28;20331;-74
2022/11/08 11:01:56;;;;;;;;;;;;;;;-143.57;100.00;51209.56;5061895;28;19928;-74
2022/11/08 11:04:30;;;;;;;;;;;;;;;-143.57;100.00;51227.44;5081990;28;19942;-74
2022/11/08 11:07:01;;;;;;;;;;;;;;;-143.57;100.00;51249.31;5092670;27;19940;-74
2022/11/08 11:09:28;;;;;;;;;;;;;;;-143.57;100.00;51219.50;5096079;27;19934;-74
2022/11/08 11:11:55;;;;;;;;;;;;;;;-143.57;100.00;51199.63;5058959;28;19939;-71
2022/11/08 11:14:22;;;;;;;;;;;;;;;-143.57;100.00;51199.63;5059817;28;19939;-70
2022/11/08 11:16:56;;;;;;;;;;;;;;;-143.57;100.00;51215.53;5092828;28;19928;-73
2022/11/08 11:19:25;;;;;;;;;;;;;;;-143.57;100.00;51221.47;5062799;28;19927;-69
2022/11/08 11:22:03;;;;;;;;;;;;;;;-143.57;100.00;51203.59;5079214;28;19981;-70
2022/11/08 11:24:30;;;;;;;;;;;;;;;-143.57;100.00;51223.47;5080566;28;19932;-70
2022/11/08 11:26:57;;;;;;;;;;;;;;;-143.57;100.00;51207.56;5063908;28;20387;-70
2022/11/08 11:29:30;;;;;;;;;;;;;;;-143.57;100.00;51231.41;5078466;28;20005;-72
2022/11/08 11:32:21;;;;;;;;;;;;;;;-143.57;100.00;51231.41;5087995;28;19932;-70
2022/11/08 11:34:58;;;;;;;;;;;;;;;-143.57;100.00;51199.63;5079869;28;20702;-73
2022/11/08 11:37:44;;;;;;;;;;;;;;;-143.57;100.00;51173.78;5082808;28;19924;-72
2022/11/08 11:40:11;;;;;;;;;;;;;;;-143.57;100.00;51223.47;5076605;28;20011;-71
2022/11/08 11:42:53;;;;;;;;;;;;;;;-143.57;99.21;51195.63;5082813;28;19921;-71
2022/11/08 11:45:27;;;;;;;;;;;;;;;-143.57;98.46;51243.34;5079065;28;21399;-72
2022/11/08 11:47:56;;;;;;;;;;;;;;;-143.57;97.48;51235.41;5080838;28;19934;-72
2022/11/08 11:50:27;;;;;;;;;;;;;;;-143.57;94.09;51187.69;5062029;28;20009;-73
2022/11/08 11:52:55;;;;;;;;;;;;;;;-143.57;63.08;51199.63;5066355;28;19938;-73
2022/11/08 11:55:27;;;;;;;;;;;;;;;-143.57;61.98;51197.63;5079834;28;20055;-73
2022/11/08 11:57:54;;;;;;;;;;;;;;;-143.57;60.94;51171.78;5088948;28;20410;-73
2022/11/08 12:00:20;;;;;;;;;;;;;;;-143.57;61.87;51193.66;5084153;28;20372;-74
2022/11/08 12:02:53;;;;;;;;;;;;;;;-143.57;61.98;51173.78;5070465;28;20014;-74
2022/11/08 12:05:22;;;;;;;;;;;;;;;-143.57;61.19;51207.56;5083314;28;20019;-74
2022/11/08 12:07:58;;;;;;;;;;;;;;;-143.57;60.21;51193.66;5094734;28;19981;-73
2022/11/08 12:10:43;;;;;;;;;;;;;;;-143.57;60.07;51203.59;5098362;27;19931;-74
2022/11/08 12:13:33;;;;;;;;;;;;;;;-143.57;58.75;51179.75;5087843;28;19967;-73
2022/11/08 12:16:07;;;;;;;;;;;;;;;-143.57;58.14;51185.69;5060196;28;20457;-72
2022/11/08 12:18:43;;;;;;;;;;;;;;;-143.57;56.47;51179.75;5092735;28;19924;-73
2022/11/08 12:21:15;;;;;;;;;;;;;;;-143.57;56.90;51203.59;5092391;28;19937;-73
2022/11/08 12:24:00;;;;;;;;;;;;;;;-143.57;55.77;51171.78;5089995;28;19977;-73
2022/11/08 12:26:42;;;;;;;;;;;;;;;-143.57;54.07;51191.66;5085988;28;19927;-74
2022/11/08 12:29:09;;;;;;;;;;;;;;;-143.57;52.58;51167.81;5084165;28;20019;-73
2022/11/08 12:31:59;;;;;;;;;;;;;;;-143.57;52.29;51183.72;5070634;28;19971;-73
2022/11/08 12:34:34;;;;;;;;;;;;;;;-143.57;49.15;51187.69;5050853;28;19947;-75
2022/11/08 12:37:01;;;;;;;;;;;;;;;-143.57;47.31;51187.69;5042524;28;19924;-73
2022/11/08 12:39:39;;;;;;;;;;;;;;;-143.57;46.48;51187.69;5087118;28;19963;-74
2022/11/08 12:42:25;;;;;;;;;;;;;;;-143.57;44.89;51181.72;5078164;28;20307;-72
2022/11/08 12:44:57;;;;;;;;;;;;;;;-143.57;43.71;51195.63;5082014;28;20394;-73
2022/11/08 12:47:28;;;;;;;;;;;;;;;-143.57;42.62;51183.72;5080697;28;20652;-73